Погода Щельена неделю

Тверская область, Россия

21 - 27 мая
  • 21мая
    Сегодня
    +6°
    +23°
    Ясно и безоблачно
    ВремяПогодаТемператураВлажностьДавлениеВетер, м/сВероятность осадков
    00:00Ясно и безоблачно+12°C81 %742 мм2.0 м/с2 %
    03:00Ясно и безоблачно+9°C90 %742 мм2.3 м/с2 %
    06:00Ясно и безоблачно+11°C85 %744 мм2.4 м/с2 %
    09:00Практически безоблачно+17°C69 %744 мм1.3 м/с2 %
    12:00Ясно и безоблачно+21°C53 %745 мм3.0 м/с2 %
    15:00Ясно и безоблачно+22°C47 %745 мм2.7 м/с3 %
    18:00Ясно и безоблачно+21°C41 %745 мм3.2 м/с3 %
    21:00Ясно и безоблачно+15°C54 %745 мм2.5 м/с2 %
  • 22мая
    Среда
    +6°
    +21°
    Ясно и безоблачно
    ВремяПогодаТемператураВлажностьДавлениеВетер, м/сВероятность осадков
    00:00Ясно и безоблачно+11°C54 %745 мм3.4 м/с2 %
    03:00Ясно и безоблачно+8°C63 %746 мм2.6 м/с2 %
    06:00Ясно и безоблачно+8°C72 %747 мм2.5 м/с2 %
    09:00Ясно и безоблачно+16°C53 %748 мм3.2 м/с2 %
    12:00Ясно и безоблачно+20°C40 %748 мм3.4 м/с2 %
    15:00Ясно и безоблачно+21°C38 %748 мм3.2 м/с2 %
    18:00Ясно и безоблачно+20°C38 %747 мм3.5 м/с2 %
    21:00Ясно и безоблачно+15°C53 %748 мм3.0 м/с2 %
  • 23мая
    Четверг
    +6°
    +21°
    Практически безоблачно
    ВремяПогодаТемператураВлажностьДавлениеВетер, м/сВероятность осадков
    00:00Ясно и безоблачно+10°C58 %749 мм3.2 м/с2 %
    03:00Ясно и безоблачно+7°C60 %750 мм2.5 м/с2 %
    06:00Ясно и безоблачно+7°C66 %751 мм2.8 м/с2 %
    09:00Ясно и безоблачно+15°C50 %752 мм2.7 м/с2 %
    12:00Ясно и безоблачно+18°C38 %752 мм3.9 м/с2 %
    15:00Практически безоблачно+20°C36 %752 мм3.8 м/с2 %
    18:00Ясно и безоблачно+19°C37 %752 мм3.3 м/с2 %
    21:00Ясно и безоблачно+14°C52 %752 мм2.5 м/с2 %
  • 24мая
    Пятница
    +7°
    +22°
    Ясно и безоблачно
    ВремяПогодаТемператураВлажностьДавлениеВетер, м/сВероятность осадков
    00:00Практически безоблачно+9°C56 %753 мм2.7 м/с2 %
    03:00Ясно и безоблачно+7°C64 %753 мм2.3 м/с2 %
    06:00Ясно и безоблачно+8°C65 %754 мм2.1 м/с2 %
    09:00Ясно и безоблачно+16°C42 %755 мм2.6 м/с2 %
    12:00Ясно и безоблачно+19°C38 %755 мм3.3 м/с2 %
    15:00Ясно и безоблачно+21°C35 %754 мм3.1 м/с2 %
    18:00Ясно и безоблачно+21°C36 %753 мм2.9 м/с2 %
    21:00Ясно и безоблачно+15°C56 %753 мм2.4 м/с2 %
  • 25мая
    Суббота
    +10°
    +24°
    Практически безоблачно
    ВремяПогодаТемператураВлажностьДавлениеВетер, м/сВероятность осадков
    00:00Ясно и безоблачно+11°C62 %753 мм2.9 м/с2 %
    03:00Ясно и безоблачно+8°C70 %753 мм2.7 м/с2 %
    06:00Ясно и безоблачно+9°C74 %753 мм2.8 м/с2 %
    09:00Ясно и безоблачно+17°C54 %753 мм3.0 м/с2 %
    12:00Небольшая облачность+22°C42 %753 мм3.4 м/с3 %
    15:00Практически безоблачно+24°C37 %752 мм3.3 м/с8 %
    18:00Ясно и безоблачно+24°C36 %751 мм3.0 м/с9 %
    21:00Ясно и безоблачно+18°C59 %750 мм2.2 м/с6 %
Мы используем cookies
Соглашаюсь